Domov               UVHVVR             MKGP            O straneh              
ZDRAVSTVENO VARSTVO RASTLIN
  MREŽA AGROMET. POSTAJ
 ► PROGNOSTIČNA OBVESTILA
AGROMETEOROLOŠKI PODATKI -
ARSO
OBVLADOVANJE TVEGANJ ZARADI
NEUGODNIH VREMENSKIH RAZMER
  ► NARAVNE NESREČE
  ► SUŠA/MOČA
  ► NAMAKANJE
  ► ŽLED (gozdarstvo)
KARTOGRAFSKI PRIKAZI
SPLETNE POVEZAVE
PROJEKTI IN PUBLIKACIJE

AGROMETEOROLOŠKA MREŽA: VREMENSKE POSTAJE IN FENOLOŠKA OPAZOVANJA

Pregled podatkov za lokacijo Blanca, meteorološka postaja 48319

Pregled senzorjev na lokaciji

ID Ime Zadnja
vrednost
Datum in čas
zadnje
spremembe
(Lokalni čas)
Tip
senzorja
4340 Omočenost lista (U) 0 U 18.10.2019 17:29 A730WET
4456 Padavine (mm) 0 mm 18.10.2019 17:30 Generic 0.2 mm
4372 Relativna vlaga 2 m (% RH) 71.33 % RH 18.10.2019 17:30 Generic 0 - 100 %
4371 Temperatura 2 m (°C) 17.69 °C 18.10.2019 17:30 Generic -40 - +60 °C
4461 Smer vetra (°) 304.1 ° 18.10.2019 17:30 Generic 0 - 360
4460 Hitrost vetra (km/h) 52.41 km/h 18.10.2019 17:30 Generic 200 km/h

Pregled podatkov zadnjih 24 ur

Zap.
št.
Datum in čas
(Centralno
evropski čas)
Blanca
Omočenost
lista
Padavine Relativna
vlaga
2
m
Temperatura
2
m
Smer
vetra
Hitrost
vetra
1 18.10.2019 17:30
2 18.10.2019 17:00
3 18.10.2019 16:30 0 0 71.3 17.7 304.1 52.4
4 18.10.2019 16:00 0 0 71.5 17.8 291.6 52.2
5 18.10.2019 15:30 0 0 71.9 17.7 318.8 49
6 18.10.2019 15:00 0 0 69.3 18.1 306.1 51.9
7 18.10.2019 14:30 0 0 67.4 18.5 295.7 52.5
8 18.10.2019 14:00 0 0 66.7 18.6 316.3 54.9
9 18.10.2019 13:30 0 0 65.7 18.7 268.1 54.6
10 18.10.2019 13:00 0 0 65 19.4 282.1 53.9
11 18.10.2019 12:30 0 0 63 19.9 306.5 56
12 18.10.2019 12:00 0 0 65.7 19.6 290.1 53.9
13 18.10.2019 11:30 0 0 68.4 19 275.5 56.5
14 18.10.2019 11:00 0 0 72 18.4 276.9 53.9
15 18.10.2019 10:30 7 0 76.6 17.6 276.6 52.7
16 18.10.2019 10:00 10 0 82.9 16.3 283.8 50.3
17 18.10.2019 09:30 10 0 90.4 14.2 325.7 47.2
18 18.10.2019 09:00 10 0 93.7 13.1 244.9 46.6
19 18.10.2019 08:30 10 0 97.7 12 311.2 46.2
20 18.10.2019 08:00 10 0 99.6 10.9 201 45.3
21 18.10.2019 07:30 10 0 99.8 10 325.1 44.3
22 18.10.2019 07:00 10 0 99.8 9.6 314.1 43.7
23 18.10.2019 06:30 10 0 98.7 9.7 312.2 43.7
24 18.10.2019 06:00 10 0 97.8 10.1 330.9 44.2
25 18.10.2019 05:30 10 0 99.3 9.9 350.2 44.5
26 18.10.2019 05:00 10 0 100 9.6 339.8 44
27 18.10.2019 04:30 10 0 100 9.6 333.9 43.7
28 18.10.2019 04:00 10 0 100 9.1 336.4 43.7
29 18.10.2019 03:30 10 0 100 9.4 276.8 43.7
30 18.10.2019 03:00 10 0 100 9.8 3.8 44
31 18.10.2019 02:30 10 0 99.9 10.1 328.8 44.1
32 18.10.2019 02:00 10 0 99.4 10.5 331.1 44.2
33 18.10.2019 01:30 10 0 99.7 10.8 331.5 44.5
34 18.10.2019 01:00 10 0 100 10.1 337.3 44.5
35 18.10.2019 00:30 10 0 100 10.4 340.4 44.9
36 18.10.2019 00:00 10 0 99.2 10.5 351.8 44.9
37 17.10.2019 23:30 10 0 99.8 11 328.6 44.8
38 17.10.2019 23:00 10 0 100 10.9 359.4 44.9
39 17.10.2019 22:30 10 0 100 11 334 44.9
40 17.10.2019 22:00 10 0 100 11.2 15.9 44.8
41 17.10.2019 21:30 10 0 100 11.6 206.1 45
42 17.10.2019 21:00 10 0 100 11.9 313.1 44.9
43 17.10.2019 20:30 10 0 99.3 12 351.8 44.7
44 17.10.2019 20:00 10 0 98.3 12.6 4.2 45
45 17.10.2019 19:30 10 0 97.3 13.1 4.2 44.9
46 17.10.2019 19:00 10 0 95.8 13.5 25.1 44.7
47 17.10.2019 18:30 7 0 93 14.2 111.8 44.7
48 17.10.2019 18:00 3 0 87.6 15.1 111.8 46.2
© 2011 Ministrstvo za kmetijstvo, gozdarstvo in prehrano. Vse pravice pridržane.